Time,TemperatureF,DewpointF,PressureIn,WindDirection,WindDirectionDegrees,WindSpeedMPH,WindSpeedGustMPH,Humidity,HourlyPrecipIn,Conditions,Clouds,dailyrainin,SoftwareType,DateUTC
2013-04-25 00:11:00,32.1,17.0,30.24,SSW,211,2.0,2.0,54,0.00,,,0.00,weatherlink.com 1.10,2013-04-25 06:11:00,
2013-04-25 00:26:00,31.6,17.0,30.23,SSW,206,2.0,6.0,55,0.00,,,0.00,weatherlink.com 1.10,2013-04-25 06:26:00,
2013-04-25 00:41:00,31.7,17.0,30.23,SSW,199,4.0,7.0,54,0.00,,,0.00,weatherlink.com 1.10,2013-04-25 06:41:00,
2013-04-25 00:56:00,32.3,16.0,30.23,SW,219,4.0,8.0,51,0.00,,,0.00,weatherlink.com 1.10,2013-04-25 06:56:00,
2013-04-25 01:11:00,32.9,16.0,30.23,SSW,212,5.0,9.0,50,0.00,,,0.00,weatherlink.com 1.10,2013-04-25 07:11:00,
2013-04-25 01:26:00,34.0,16.0,30.22,SW,215,6.0,9.0,48,0.00,,,0.00,weatherlink.com 1.10,2013-04-25 07:26:00,
2013-04-25 01:41:00,34.2,16.0,30.22,SW,224,7.0,8.0,48,0.00,,,0.00,weatherlink.com 1.10,2013-04-25 07:41:00,
2013-04-25 01:56:00,34.0,16.0,30.22,SW,215,5.0,8.0,48,0.00,,,0.00,weatherlink.com 1.10,2013-04-25 07:56:00,
2013-04-25 02:11:00,33.9,15.0,30.22,SSW,207,7.0,8.0,47,0.00,,,0.00,weatherlink.com 1.10,2013-04-25 08:11:00,
2013-04-25 02:26:00,34.1,16.0,30.21,SW,215,0.0,7.0,47,0.00,,,0.00,weatherlink.com 1.10,2013-04-25 08:26:00,
2013-04-25 02:41:00,33.8,16.0,30.21,SW,217,0.0,1.0,49,0.00,,,0.00,weatherlink.com 1.10,2013-04-25 08:41:00,
2013-04-25 02:56:00,33.1,17.0,30.21,SW,217,0.0,1.0,51,0.00,,,0.00,weatherlink.com 1.10,2013-04-25 08:56:00,
2013-04-25 03:11:00,32.8,17.0,30.21,SSW,211,4.0,5.0,53,0.00,,,0.00,weatherlink.com 1.10,2013-04-25 09:11:00,
2013-04-25 03:26:00,32.5,18.0,30.21,SSW,210,1.0,3.0,55,0.00,,,0.00,weatherlink.com 1.10,2013-04-25 09:26:00,
2013-04-25 03:41:00,32.4,17.0,30.21,SSW,211,1.0,4.0,53,0.00,,,0.00,weatherlink.com 1.10,2013-04-25 09:41:00,
2013-04-25 03:56:00,32.5,18.0,30.21,SSW,210,3.0,5.0,55,0.00,,,0.00,weatherlink.com 1.10,2013-04-25 09:56:00,
2013-04-25 04:11:00,32.8,18.0,30.21,SSW,209,2.0,3.0,55,0.00,,,0.00,weatherlink.com 1.10,2013-04-25 10:11:00,
2013-04-25 04:26:00,32.9,18.0,30.21,SSW,209,0.0,3.0,54,0.00,,,0.00,weatherlink.com 1.10,2013-04-25 10:26:00,
2013-04-25 04:41:00,32.6,17.0,30.20,SSW,209,0.0,3.0,53,0.00,,,0.00,weatherlink.com 1.10,2013-04-25 10:41:00,
2013-04-25 04:56:00,32.2,18.0,30.20,SSW,209,2.0,2.0,57,0.00,,,0.00,weatherlink.com 1.10,2013-04-25 10:56:00,
2013-04-25 05:11:00,31.5,19.0,30.20,SSW,209,2.0,3.0,60,0.00,,,0.00,weatherlink.com 1.10,2013-04-25 11:11:00,
2013-04-25 05:26:00,30.8,18.0,30.20,SSW,211,2.0,5.0,59,0.00,,,0.00,weatherlink.com 1.10,2013-04-25 11:26:00,
2013-04-25 05:41:00,30.2,17.0,30.20,SSW,213,3.0,3.0,59,0.00,,,0.00,weatherlink.com 1.10,2013-04-25 11:41:00,
2013-04-25 05:56:00,29.8,17.0,30.20,SW,216,2.0,4.0,60,0.00,,,0.00,weatherlink.com 1.10,2013-04-25 11:56:00,
2013-04-25 06:11:00,29.4,17.0,30.20,SW,227,1.0,5.0,59,0.00,,,0.00,weatherlink.com 1.10,2013-04-25 12:11:00,
2013-04-25 06:26:00,29.2,18.0,30.20,SW,227,1.0,4.0,63,0.00,,,0.00,weatherlink.com 1.10,2013-04-25 12:26:00,
2013-04-25 06:41:00,29.0,19.0,30.20,SSE,161,2.0,3.0,66,0.00,,,0.00,weatherlink.com 1.10,2013-04-25 12:41:00,
2013-04-25 06:56:00,28.8,19.0,30.20,South,169,0.0,0.0,66,0.00,,,0.00,weatherlink.com 1.10,2013-04-25 12:56:00,
2013-04-25 07:11:00,28.9,19.0,30.20,South,178,0.0,0.0,67,0.00,,,0.00,weatherlink.com 1.10,2013-04-25 13:11:00,
2013-04-25 07:27:00,29.6,16.0,30.21,South,178,0.0,0.0,58,0.00,,,0.00,weatherlink.com 1.10,2013-04-25 13:27:00,
2013-04-25 07:42:00,31.4,15.0,30.21,SSW,211,0.0,2.0,50,0.00,,,0.00,weatherlink.com 1.10,2013-04-25 13:42:00,
2013-04-25 07:57:00,33.8,15.0,30.21,SW,225,0.0,3.0,47,0.00,,,0.00,weatherlink.com 1.10,2013-04-25 13:57:00,
2013-04-25 08:12:00,36.0,19.0,30.20,North,360,0.0,4.0,50,0.00,,,0.00,weatherlink.com 1.10,2013-04-25 14:12:00,
2013-04-25 08:27:00,39.8,22.0,30.20,ENE,75,0.0,4.0,49,0.00,,,0.00,weatherlink.com 1.10,2013-04-25 14:27:00,
2013-04-25 08:42:00,43.7,22.0,30.20,East,90,0.0,5.0,42,0.00,,,0.00,weatherlink.com 1.10,2013-04-25 14:42:00,
2013-04-25 08:57:00,44.4,23.0,30.20,ESE,123,2.0,5.0,43,0.00,,,0.00,weatherlink.com 1.10,2013-04-25 14:57:00,
2013-04-25 09:12:00,45.4,22.0,30.20,ESE,117,0.0,4.0,40,0.00,,,0.00,weatherlink.com 1.10,2013-04-25 15:12:00,
2013-04-25 09:27:00,46.8,25.0,30.20,ESE,117,0.0,3.0,43,0.00,,,0.00,weatherlink.com 1.10,2013-04-25 15:27:00,
2013-04-25 09:42:00,48.9,23.0,30.19,SE,129,0.0,5.0,37,0.00,,,0.00,weatherlink.com 1.10,2013-04-25 15:42:00,
2013-04-25 09:57:00,50.4,22.0,30.19,ESE,104,4.0,5.0,33,0.00,,,0.00,weatherlink.com 1.10,2013-04-25 15:57:00,
2013-04-25 10:12:00,52.4,17.0,30.19,ENE,74,5.0,5.0,25,0.00,,,0.00,weatherlink.com 1.10,2013-04-25 16:12:00,
2013-04-25 10:27:00,52.4,23.0,30.18,East,95,1.0,7.0,32,0.00,,,0.00,weatherlink.com 1.10,2013-04-25 16:27:00,
2013-04-25 10:42:00,55.2,21.0,30.18,ESE,106,3.0,11.0,26,0.00,,,0.00,weatherlink.com 1.10,2013-04-25 16:42:00,
2013-04-25 10:57:00,53.9,21.0,30.18,ESE,109,0.0,9.0,28,0.00,,,0.00,weatherlink.com 1.10,2013-04-25 16:57:00,
2013-04-25 11:12:00,54.6,20.0,30.17,ENE,66,1.0,8.0,26,0.00,,,0.00,weatherlink.com 1.10,2013-04-25 17:12:00,
2013-04-25 11:27:00,55.1,21.0,30.17,NNE,28,0.0,6.0,26,0.00,,,0.00,weatherlink.com 1.10,2013-04-25 17:27:00,
2013-04-25 11:42:00,55.2,20.0,30.16,North,355,0.0,7.0,25,0.00,,,0.00,weatherlink.com 1.10,2013-04-25 17:42:00,
2013-04-25 11:57:00,55.5,21.0,30.16,North,5,4.0,8.0,26,0.00,,,0.00,weatherlink.com 1.10,2013-04-25 17:57:00,
2013-04-25 12:12:00,56.4,22.0,30.15,NW,316,6.0,14.0,26,0.00,,,0.00,weatherlink.com 1.10,2013-04-25 18:12:00,
2013-04-25 12:27:00,58.8,21.0,30.15,West,281,7.0,18.0,23,0.00,,,0.00,weatherlink.com 1.10,2013-04-25 18:27:00,
2013-04-25 12:42:00,58.5,20.0,30.14,WNW,301,6.0,13.0,22,0.00,,,0.00,weatherlink.com 1.10,2013-04-25 18:42:00,
2013-04-25 12:57:00,59.3,19.0,30.14,West,275,10.0,19.0,21,0.00,,,0.00,weatherlink.com 1.10,2013-04-25 18:57:00,
2013-04-25 13:13:00,59.0,19.0,30.13,West,268,8.0,15.0,21,0.00,,,0.00,weatherlink.com 1.10,2013-04-25 19:13:00,
2013-04-25 13:28:00,58.7,18.0,30.12,West,259,3.0,15.0,20,0.00,,,0.00,weatherlink.com 1.10,2013-04-25 19:28:00,
2013-04-25 13:43:00,59.7,18.0,30.12,SSW,194,10.0,22.0,20,0.00,,,0.00,weatherlink.com 1.10,2013-04-25 19:43:00,
2013-04-25 13:58:00,59.0,18.0,30.12,WSW,255,13.0,16.0,20,0.00,,,0.00,weatherlink.com 1.10,2013-04-25 19:58:00,
2013-04-25 14:13:00,60.0,19.0,30.12,SW,215,8.0,24.0,20,0.00,,,0.00,weatherlink.com 1.10,2013-04-25 20:13:00,
2013-04-25 14:28:00,61.3,19.0,30.12,SW,219,8.0,21.0,19,0.00,,,0.00,weatherlink.com 1.10,2013-04-25 20:28:00,
2013-04-25 14:43:00,60.2,19.0,30.11,West,267,8.0,18.0,20,0.00,,,0.00,weatherlink.com 1.10,2013-04-25 20:43:00,
2013-04-25 14:58:00,59.7,18.0,30.11,WNW,282,17.0,22.0,20,0.00,,,0.00,weatherlink.com 1.10,2013-04-25 20:58:00,
2013-04-25 15:13:00,60.0,20.0,30.10,NW,314,7.0,17.0,21,0.00,,,0.00,weatherlink.com 1.10,2013-04-25 21:13:00,
2013-04-25 15:28:00,60.5,19.0,30.10,West,273,12.0,25.0,20,0.00,,,0.00,weatherlink.com 1.10,2013-04-25 21:28:00,
2013-04-25 15:43:00,59.5,19.0,30.10,West,275,5.0,16.0,21,0.00,,,0.00,weatherlink.com 1.10,2013-04-25 21:43:00,
2013-04-25 15:58:00,58.9,18.0,30.10,WSW,256,6.0,15.0,20,0.00,,,0.00,weatherlink.com 1.10,2013-04-25 21:58:00,
2013-04-25 16:13:00,58.8,18.0,30.10,WSW,238,7.0,14.0,20,0.00,,,0.00,weatherlink.com 1.10,2013-04-25 22:13:00,
2013-04-25 16:28:00,56.9,16.0,30.10,South,186,5.0,29.0,20,0.00,,,0.00,weatherlink.com 1.10,2013-04-25 22:28:00,
2013-04-25 16:43:00,56.8,18.0,30.10,SSW,202,3.0,14.0,22,0.00,,,0.00,weatherlink.com 1.10,2013-04-25 22:43:00,
2013-04-25 16:58:00,58.4,17.0,30.10,SW,223,7.0,15.0,20,0.00,,,0.00,weatherlink.com 1.10,2013-04-25 22:58:00,
2013-04-25 17:13:00,60.1,17.0,30.09,WSW,257,8.0,18.0,19,0.00,,,0.00,weatherlink.com 1.10,2013-04-25 23:13:00,
2013-04-25 17:28:00,59.8,16.0,30.10,North,360,6.0,16.0,18,0.00,,,0.00,weatherlink.com 1.10,2013-04-25 23:28:00,
2013-04-25 17:43:00,58.0,16.0,30.10,NW,311,6.0,19.0,19,0.00,,,0.00,weatherlink.com 1.10,2013-04-25 23:43:00,
2013-04-25 17:58:00,57.5,17.0,30.10,WSW,254,10.0,15.0,20,0.00,,,0.00,weatherlink.com 1.10,2013-04-25 23:58:00,
2013-04-25 18:13:00,56.6,16.0,30.10,West,263,10.0,14.0,20,0.00,,,0.00,weatherlink.com 1.10,2013-04-26 00:13:00,
2013-04-25 18:28:00,55.9,14.0,30.11,West,278,6.0,14.0,19,0.00,,,0.00,weatherlink.com 1.10,2013-04-26 00:28:00,
2013-04-25 18:43:00,55.1,16.0,30.11,WNW,282,5.0,10.0,21,0.00,,,0.00,weatherlink.com 1.10,2013-04-26 00:43:00,
2013-04-25 18:58:00,54.6,16.0,30.11,WNW,285,4.0,7.0,22,0.00,,,0.00,weatherlink.com 1.10,2013-04-26 00:58:00,
2013-04-25 19:13:00,53.9,18.0,30.11,NW,321,0.0,5.0,24,0.00,,,0.00,weatherlink.com 1.10,2013-04-26 01:13:00,
2013-04-25 19:28:00,53.4,21.0,30.11,NW,320,0.0,2.0,28,0.00,,,0.00,weatherlink.com 1.10,2013-04-26 01:28:00,
2013-04-25 19:43:00,52.7,22.0,30.12,NW,320,0.0,2.0,30,0.00,,,0.00,weatherlink.com 1.10,2013-04-26 01:43:00,
2013-04-25 19:58:00,51.7,25.0,30.12,NW,320,2.0,2.0,35,0.00,,,0.00,weatherlink.com 1.10,2013-04-26 01:58:00,
2013-04-25 20:13:00,50.0,21.0,30.13,West,265,3.0,5.0,32,0.00,,,0.00,weatherlink.com 1.10,2013-04-26 02:13:00,
2013-04-25 20:28:00,49.0,19.0,30.14,WNW,290,0.0,6.0,31,0.00,,,0.00,weatherlink.com 1.10,2013-04-26 02:28:00,
2013-04-25 20:43:00,48.8,19.0,30.14,NE,55,2.0,22.0,31,0.00,,,0.00,weatherlink.com 1.10,2013-04-26 02:43:00,
2013-04-25 20:58:00,48.8,18.0,30.15,NW,307,0.0,6.0,29,0.00,,,0.00,weatherlink.com 1.10,2013-04-26 02:58:00,
2013-04-25 21:13:00,48.5,17.0,30.15,WNW,300,2.0,5.0,29,0.00,,,0.00,weatherlink.com 1.10,2013-04-26 03:13:00,
2013-04-25 21:28:00,48.0,19.0,30.16,SW,230,3.0,6.0,31,0.00,,,0.00,weatherlink.com 1.10,2013-04-26 03:28:00,
2013-04-25 21:43:00,47.4,19.0,30.17,SW,228,5.0,6.0,33,0.00,,,0.00,weatherlink.com 1.10,2013-04-26 03:43:00,
2013-04-25 21:58:00,46.9,18.0,30.17,WSW,238,5.0,7.0,32,0.00,,,0.00,weatherlink.com 1.10,2013-04-26 03:58:00,
2013-04-25 22:13:00,46.8,19.0,30.18,SSW,207,5.0,6.0,33,0.00,,,0.00,weatherlink.com 1.10,2013-04-26 04:13:00,
2013-04-25 22:28:00,46.7,21.0,30.18,SSE,163,3.0,5.0,36,0.00,,,0.00,weatherlink.com 1.10,2013-04-26 04:28:00,
2013-04-25 22:43:00,46.5,22.0,30.18,SE,127,0.0,3.0,38,0.00,,,0.00,weatherlink.com 1.10,2013-04-26 04:43:00,
2013-04-25 22:58:00,46.1,21.0,30.18,South,189,1.0,5.0,37,0.00,,,0.00,weatherlink.com 1.10,2013-04-26 04:58:00,
2013-04-25 23:13:00,45.8,21.0,30.18,South,190,3.0,6.0,38,0.00,,,0.00,weatherlink.com 1.10,2013-04-26 05:13:00,
2013-04-25 23:28:00,45.3,21.0,30.18,SSW,202,5.0,7.0,38,0.00,,,0.00,weatherlink.com 1.10,2013-04-26 05:28:00,
2013-04-25 23:43:00,45.0,21.0,30.18,SSW,213,6.0,6.0,38,0.00,,,0.00,weatherlink.com 1.10,2013-04-26 05:43:00,
2013-04-25 23:58:00,44.5,22.0,30.18,SSW,202,7.0,8.0,41,0.00,,,0.00,weatherlink.com 1.10,2013-04-26 05:58:00,